createdAt,value
2023-01-08T00:02:03.435Z,73.32
2023-01-08T00:07:12.076Z,73.29
2023-01-08T00:12:14.326Z,73.17
2023-01-08T00:17:16.130Z,73.19
2023-01-08T00:22:18.016Z,73.18
2023-01-08T00:27:19.863Z,73.08
2023-01-08T00:32:22.142Z,73.37
2023-01-08T00:37:24.215Z,73.43
2023-01-08T00:42:26.124Z,73.76
2023-01-08T00:47:27.967Z,74.17
2023-01-08T00:52:29.756Z,73.93
2023-01-08T00:57:36.356Z,74.08
2023-01-08T01:02:39.067Z,74.42
2023-01-08T01:07:42.478Z,73.98
2023-01-08T01:12:44.692Z,74.32
2023-01-08T01:17:47.150Z,74.20
2023-01-08T01:22:49.182Z,74.07
2023-01-08T01:27:51.140Z,73.97
2023-01-08T01:32:52.992Z,74.06
2023-01-08T01:37:54.793Z,74.08
2023-01-08T01:42:56.669Z,74.34
2023-01-08T01:48:05.982Z,74.07
2023-01-08T01:53:37.917Z,74.16
2023-01-08T01:58:39.731Z,73.80
2023-01-08T02:03:41.650Z,74.26
2023-01-08T02:08:57.021Z,74.19
2023-01-08T02:14:12.878Z,73.91
2023-01-08T02:19:36.978Z,73.94
2023-01-08T02:24:53.370Z,74.11
2023-01-08T02:29:57.504Z,74.20
2023-01-08T02:34:59.746Z,74.09
2023-01-08T02:40:13.950Z,74.05
2023-01-08T02:45:35.941Z,74.20
2023-01-08T02:50:56.544Z,74.27
2023-01-08T02:56:02.556Z,74.03
2023-01-08T03:01:08.304Z,73.97
2023-01-08T03:12:07.294Z,74.25
2023-01-08T03:17:18.431Z,74.38
2023-01-08T03:22:22.709Z,74.49
2023-01-08T03:27:33.723Z,74.40
2023-01-08T03:32:43.797Z,74.47
2023-01-08T03:38:03.553Z,74.51
2023-01-08T03:43:05.394Z,74.66
2023-01-08T03:48:08.630Z,74.65
2023-01-08T03:53:10.568Z,74.64
2023-01-08T03:58:21.243Z,74.55
2023-01-08T04:03:24.781Z,74.62
2023-01-08T04:08:26.784Z,74.55
2023-01-08T04:13:28.674Z,75.08
2023-01-08T04:18:31.117Z,75.76
2023-01-08T04:23:33.185Z,75.97
2023-01-08T04:28:35.818Z,76.44
2023-01-08T04:33:37.719Z,76.40
2023-01-08T04:38:47.202Z,76.29
2023-01-08T04:43:49.398Z,76.40
2023-01-08T04:49:25.211Z,76.11
2023-01-08T04:54:27.184Z,76.26
2023-01-08T04:59:29.411Z,76.34
2023-01-08T05:04:31.539Z,76.36
2023-01-08T05:09:34.083Z,76.46
2023-01-08T05:14:35.862Z,76.70
2023-01-08T05:19:38.426Z,76.45
2023-01-08T05:24:40.568Z,76.44
2023-01-08T05:29:42.573Z,76.57
2023-01-08T05:34:45.214Z,76.57
2023-01-08T05:39:47.026Z,76.50
2023-01-08T05:44:49.027Z,76.26
2023-01-08T05:50:01.648Z,76.17
2023-01-08T05:55:04.703Z,76.19
2023-01-08T06:00:08.477Z,76.15
2023-01-08T06:05:13.854Z,76.11
2023-01-08T06:10:16.254Z,76.24
2023-01-08T06:15:18.986Z,76.09
2023-01-08T06:20:20.822Z,76.18
2023-01-08T06:25:22.900Z,76.33
2023-01-08T06:30:24.748Z,76.44
2023-01-08T06:35:27.534Z,76.26
2023-01-08T06:40:29.652Z,76.40
2023-01-08T06:45:32.772Z,76.52
2023-01-08T06:50:35.035Z,76.28
2023-01-08T06:55:38.493Z,76.33
2023-01-08T07:00:40.933Z,76.45
2023-01-08T07:05:43.002Z,76.46
2023-01-08T07:10:45.226Z,76.57
2023-01-08T07:15:47.588Z,76.68
2023-01-08T07:20:49.597Z,76.47
2023-01-08T07:25:51.512Z,76.40
2023-01-08T07:30:53.447Z,76.49
2023-01-08T07:41:13.569Z,76.84
2023-01-08T07:46:16.363Z,76.83
2023-01-08T07:51:18.789Z,76.96
2023-01-08T07:56:20.607Z,76.79
2023-01-08T08:01:23.050Z,76.70
2023-01-08T08:06:25.166Z,77.07
2023-01-08T08:11:52.252Z,77.25
2023-01-08T08:16:54.330Z,77.32
2023-01-08T08:21:56.167Z,77.04
2023-01-08T08:26:58.147Z,77.39
2023-01-08T08:32:00.017Z,77.70
2023-01-08T08:37:02.118Z,77.61
2023-01-08T08:42:04.035Z,77.55
2023-01-08T08:47:11.744Z,77.37
2023-01-08T08:52:13.866Z,77.70
2023-01-08T08:57:15.764Z,77.76
2023-01-08T09:02:17.716Z,77.84
2023-01-08T09:07:19.699Z,77.97
2023-01-08T09:12:21.453Z,77.86
2023-01-08T09:17:23.376Z,77.95
2023-01-08T09:22:25.453Z,78.04
2023-01-08T09:27:27.279Z,78.03
2023-01-08T09:32:29.238Z,78.21
2023-01-08T09:37:31.566Z,78.35
2023-01-08T09:42:34.267Z,78.08
2023-01-08T09:47:41.442Z,78.16
2023-01-08T09:52:43.942Z,78.07
2023-01-08T09:57:47.220Z,78.03
2023-01-08T10:02:50.085Z,77.74
2023-01-08T10:07:51.952Z,77.95
2023-01-08T10:12:55.525Z,78.01
2023-01-08T10:18:07.901Z,77.93
2023-01-08T10:23:19.390Z,78.06
2023-01-08T10:28:35.449Z,77.74
2023-01-08T10:39:06.469Z,77.85
2023-01-08T10:44:17.785Z,77.60
2023-01-08T10:49:19.812Z,77.63
2023-01-08T10:54:36.786Z,77.57
2023-01-08T10:59:42.780Z,77.39
2023-01-08T11:04:51.880Z,77.50
2023-01-08T11:09:54.970Z,77.66
2023-01-08T11:14:57.574Z,77.66
2023-01-08T11:20:30.858Z,77.64
2023-01-08T11:25:35.775Z,77.64
2023-01-08T11:30:39.720Z,77.61
2023-01-08T11:35:50.601Z,77.50
2023-01-08T11:41:11.244Z,77.40
2023-01-08T11:46:22.265Z,77.05
2023-01-08T11:51:36.903Z,77.01
2023-01-08T11:56:57.062Z,76.84
2023-01-08T12:02:26.697Z,76.67
2023-01-08T12:07:50.162Z,76.75
2023-01-08T12:12:57.886Z,76.62
2023-01-08T12:18:20.926Z,76.59
2023-01-08T12:23:44.208Z,76.43
2023-01-08T12:29:10.188Z,76.28
2023-01-08T12:34:28.529Z,76.04
2023-01-08T12:39:34.139Z,76.01
2023-01-08T12:44:37.296Z,75.93
2023-01-08T12:49:47.857Z,76.15
2023-01-08T12:54:49.722Z,75.76
2023-01-08T13:00:02.002Z,75.72
2023-01-08T13:05:22.515Z,75.64
2023-01-08T13:10:41.572Z,75.64
2023-01-08T13:15:43.977Z,75.44
2023-01-08T13:21:02.129Z,75.51
2023-01-08T13:26:06.699Z,75.50
2023-01-08T13:31:22.875Z,75.39
2023-01-08T13:36:27.388Z,75.38
2023-01-08T13:41:40.157Z,75.46
2023-01-08T13:46:44.381Z,75.39
2023-01-08T13:51:47.564Z,75.36
2023-01-08T13:56:54.547Z,75.18
2023-01-08T14:02:01.352Z,75.12
2023-01-08T14:07:16.125Z,75.50
2023-01-08T14:12:23.595Z,75.06
2023-01-08T14:17:30.664Z,75.50
2023-01-08T14:22:35.007Z,75.45
2023-01-08T14:27:36.854Z,75.83
2023-01-08T14:32:44.448Z,75.54
2023-01-08T14:37:46.447Z,75.90
2023-01-08T14:42:53.786Z,75.93
2023-01-08T14:48:01.921Z,75.99
2023-01-08T14:53:28.869Z,76.37
2023-01-08T14:58:37.239Z,76.21
2023-01-08T15:03:42.707Z,76.21
2023-01-08T15:08:50.786Z,76.61
2023-01-08T15:13:59.390Z,76.33
2023-01-08T15:19:06.117Z,76.27
2023-01-08T15:24:08.726Z,76.11
2023-01-08T15:29:20.235Z,76.31
2023-01-08T15:34:22.101Z,76.21
2023-01-08T15:39:24.146Z,76.27
2023-01-08T15:44:26.124Z,76.18
2023-01-08T15:49:27.939Z,76.02
2023-01-08T15:54:30.444Z,75.94
2023-01-08T15:59:41.204Z,75.90
2023-01-08T16:04:43.360Z,75.93
2023-01-08T16:09:45.188Z,76.01
2023-01-08T16:14:47.051Z,75.94
2023-01-08T16:19:48.817Z,75.99
2023-01-08T16:30:12.015Z,75.76
2023-01-08T16:35:13.865Z,75.69
2023-01-08T16:40:16.871Z,75.67
2023-01-08T16:45:18.767Z,75.65
2023-01-08T16:50:20.664Z,75.64
2023-01-08T16:55:22.423Z,75.76
2023-01-08T17:00:24.316Z,75.70
2023-01-08T17:05:26.169Z,75.72
2023-01-08T17:10:28.043Z,75.48
2023-01-08T17:15:55.835Z,75.61
2023-01-08T17:20:57.905Z,75.68
2023-01-08T17:26:07.321Z,75.47
2023-01-08T17:31:14.025Z,75.49
2023-01-08T17:36:27.103Z,75.62
2023-01-08T17:41:47.867Z,75.69
2023-01-08T17:46:49.955Z,75.46
2023-01-08T17:51:53.515Z,75.48
2023-01-08T17:57:03.264Z,75.48
2023-01-08T18:02:05.246Z,75.36
2023-01-08T18:07:07.229Z,75.62
2023-01-08T18:12:09.387Z,75.60
2023-01-08T18:17:11.576Z,75.55
2023-01-08T18:22:13.561Z,75.46
2023-01-08T18:27:15.327Z,75.58
2023-01-08T18:32:17.493Z,75.80
2023-01-08T18:37:19.402Z,75.72
2023-01-08T18:42:34.125Z,75.41
2023-01-08T18:48:02.794Z,75.36
2023-01-08T18:53:06.129Z,75.30
2023-01-08T18:58:08.007Z,75.30
2023-01-08T19:03:12.369Z,75.04
2023-01-08T19:08:14.202Z,75.19
2023-01-08T19:13:16.618Z,75.05
2023-01-08T19:18:18.432Z,74.80
2023-01-08T19:23:20.256Z,75.00
2023-01-08T19:28:22.157Z,75.16
2023-01-08T19:33:24.024Z,75.05
2023-01-08T19:38:26.054Z,75.14
2023-01-08T19:43:43.219Z,75.34
2023-01-08T19:48:45.686Z,75.33
2023-01-08T19:53:49.996Z,75.56
2023-01-08T19:58:51.809Z,75.41
2023-01-08T20:03:54.611Z,75.36
2023-01-08T20:08:59.019Z,75.59
2023-01-08T20:14:02.887Z,75.73
2023-01-08T20:19:04.832Z,75.61
2023-01-08T20:24:11.267Z,75.59
2023-01-08T20:29:14.978Z,75.82
2023-01-08T20:34:17.238Z,75.80
2023-01-08T20:39:19.988Z,75.67
2023-01-08T20:44:28.074Z,75.82
2023-01-08T20:49:30.035Z,75.82
2023-01-08T20:54:32.177Z,75.73
2023-01-08T20:59:34.244Z,75.67
2023-01-08T21:04:38.043Z,75.97
2023-01-08T21:09:40.464Z,76.19
2023-01-08T21:14:42.433Z,75.87
2023-01-08T21:24:48.485Z,75.85
2023-01-08T21:30:16.040Z,76.04
2023-01-08T21:35:17.821Z,75.91
2023-01-08T21:40:21.896Z,75.86
2023-01-08T21:45:27.519Z,75.75
2023-01-08T21:50:29.533Z,75.99
2023-01-08T21:55:33.660Z,75.82
2023-01-08T22:00:39.748Z,75.69
2023-01-08T22:05:41.697Z,75.83
2023-01-08T22:10:43.926Z,75.88
2023-01-08T22:15:45.755Z,76.22
2023-01-08T22:20:48.606Z,76.46
2023-01-08T22:25:50.457Z,75.88
2023-01-08T22:30:52.645Z,76.01
2023-01-08T22:35:57.080Z,76.41
2023-01-08T22:40:59.481Z,76.28
2023-01-08T22:46:01.385Z,76.34
2023-01-08T22:51:03.584Z,76.28
2023-01-08T22:56:11.983Z,76.75
2023-01-08T23:01:23.004Z,76.51
2023-01-08T23:06:26.915Z,76.54
2023-01-08T23:11:29.050Z,76.79
2023-01-08T23:16:31.071Z,77.21
2023-01-08T23:21:33.082Z,77.30
2023-01-08T23:26:37.762Z,77.47
2023-01-08T23:31:39.786Z,77.42
2023-01-08T23:36:43.010Z,77.11
2023-01-08T23:41:45.016Z,77.28
2023-01-08T23:46:46.864Z,77.13
2023-01-08T23:51:49.093Z,77.21
2023-01-08T23:56:50.979Z,77.54
